Islander — ZCOT5 — position and weather

sailwx.info

Track history (hours):
 
Tides and Currents Weather Stations Pressure Air Temp Water Temp Dewpoint Dewpoint Depression Visibility Wind Speed Wind Dir Waves Ship Positions

Islander

Last reported at 2018-Feb-21 16:32 UTC. Time now 2018-Feb-25 12:03 UTC.
Position N 33°28' W 117°42'.

Length 26 m; draft 2.2 m.

Type: Pleasure craft. MMSI: 319160000.

Date/timePositionNaut miles runAvg speedWind from/ knotsBaromVisibWave heightAir tempDewpointWater temp
2018-Feb-21 16:32N 33°28' W 117°42'0 0.0
2018-Feb-21 16:20N 33°28' W 117°42'0 0.0
2018-Feb-21 14:32N 33°28' W 117°42'0 0.0
2018-Feb-21 14:08N 33°28' W 117°42'0 0.0
2018-Feb-21 13:38N 33°28' W 117°42'0 0.0
2018-Feb-21 13:20N 33°28' W 117°42'0 0.0
2018-Feb-21 12:56N 33°28' W 117°42'0 0.0
2018-Feb-21 12:20N 33°28' W 117°42'0 0.0
2018-Feb-21 11:44N 33°28' W 117°42'0 0.0
2018-Feb-21 11:02N 33°28' W 117°42'0 0.0
2018-Feb-21 10:56N 33°28' W 117°42'0 0.0
2018-Feb-21 10:26N 33°28' W 117°42'0 0.0
2018-Feb-21 09:44N 33°28' W 117°42'0 0.0
2018-Feb-21 09:14N 33°28' W 117°42'0 0.0
2018-Feb-21 08:56N 33°28' W 117°42'0 0.0
2018-Feb-21 08:20N 33°28' W 117°42'0 0.0
2018-Feb-21 07:49N 33°28' W 117°42'0 0.0
2018-Feb-21 07:13N 33°28' W 117°42'0 0.0
2018-Feb-21 06:55N 33°28' W 117°42'0 0.0
2018-Feb-21 06:07N 33°28' W 117°42'0 0.0
2018-Feb-21 05:01N 33°28' W 117°42'0 0.0
2018-Feb-21 04:55N 33°28' W 117°42'1 0.3
2018-Feb-21 00:21N 33°27' W 117°41'7 8.7
2018-Feb-20 23:29N 33°20' W 117°38'4 8.7
2018-Feb-20 23:00N 33°16' W 117°35'4 9.0
2018-Feb-20 22:30N 33°12' W 117°33'5 9.3
2018-Feb-20 22:00N 33°08' W 117°30'5 9.3
2018-Feb-20 21:30N 33°04' W 117°28'5 9.1
2018-Feb-20 21:00N 33°00' W 117°25'5 9.0
2018-Feb-20 20:30N 32°56' W 117°23'5 9.0
2018-Feb-20 20:00N 32°52' W 117°20'4 8.9
2018-Feb-20 19:30N 32°48' W 117°18'  
Track history (hours):
 
Tides and Currents Weather Stations Pressure Air Temp Water Temp Dewpoint Dewpoint Depression Visibility Wind Speed Wind Dir Waves Ship Positions

Islander

Last reported at 2018-Feb-21 16:32 UTC. Time now 2018-Feb-25 12:03 UTC.
Position N 33°28' W 117°42'.

Length 26 m; draft 2.2 m.

Type: Pleasure craft. MMSI: 319160000.

Date/timePositionNaut miles runAvg speedWind from/ knotsBaromVisibWave heightAir tempDewpointWater temp
2018-Feb-21 16:32N 33°28' W 117°42'0 0.0
2018-Feb-21 16:20N 33°28' W 117°42'0 0.0
2018-Feb-21 14:32N 33°28' W 117°42'0 0.0
2018-Feb-21 14:08N 33°28' W 117°42'0 0.0
2018-Feb-21 13:38N 33°28' W 117°42'0 0.0
2018-Feb-21 13:20N 33°28' W 117°42'0 0.0
2018-Feb-21 12:56N 33°28' W 117°42'0 0.0
2018-Feb-21 12:20N 33°28' W 117°42'0 0.0
2018-Feb-21 11:44N 33°28' W 117°42'0 0.0
2018-Feb-21 11:02N 33°28' W 117°42'0 0.0
2018-Feb-21 10:56N 33°28' W 117°42'0 0.0
2018-Feb-21 10:26N 33°28' W 117°42'0 0.0
2018-Feb-21 09:44N 33°28' W 117°42'0 0.0
2018-Feb-21 09:14N 33°28' W 117°42'0 0.0
2018-Feb-21 08:56N 33°28' W 117°42'0 0.0
2018-Feb-21 08:20N 33°28' W 117°42'0 0.0
2018-Feb-21 07:49N 33°28' W 117°42'0 0.0
2018-Feb-21 07:13N 33°28' W 117°42'0 0.0
2018-Feb-21 06:55N 33°28' W 117°42'0 0.0
2018-Feb-21 06:07N 33°28' W 117°42'0 0.0
2018-Feb-21 05:01N 33°28' W 117°42'0 0.0
2018-Feb-21 04:55N 33°28' W 117°42'1 0.3
2018-Feb-21 00:21N 33°27' W 117°41'7 8.7
2018-Feb-20 23:29N 33°20' W 117°38'4 8.7
2018-Feb-20 23:00N 33°16' W 117°35'4 9.0
2018-Feb-20 22:30N 33°12' W 117°33'5 9.3
2018-Feb-20 22:00N 33°08' W 117°30'5 9.3
2018-Feb-20 21:30N 33°04' W 117°28'5 9.1
2018-Feb-20 21:00N 33°00' W 117°25'5 9.0
2018-Feb-20 20:30N 32°56' W 117°23'5 9.0
2018-Feb-20 20:00N 32°52' W 117°20'4 8.9
2018-Feb-20 19:30N 32°48' W 117°18'  

Dump ship's entire track history